createdAt,value
2019-03-08T11:31:06.353Z,24.63
2019-03-08T11:33:44.117Z,24.67
2019-03-08T11:36:45.944Z,19.85
2019-03-08T11:39:35.823Z,16.87
2019-03-08T11:42:13.370Z,17.69
2019-03-08T11:44:46.565Z,19.29
2019-03-08T11:47:38.111Z,21.02
2019-03-08T11:50:57.422Z,22.90
2019-03-08T11:53:57.971Z,22.99
2019-03-08T11:56:43.063Z,23.51
2019-03-08T11:59:30.469Z,23.69
2019-03-08T12:02:22.927Z,23.59
2019-03-08T12:05:14.108Z,23.55
2019-03-08T12:07:50.297Z,23.51
2019-03-08T12:10:24.308Z,23.61
2019-03-08T12:12:57.290Z,23.71
2019-03-08T12:15:48.032Z,23.68
2019-03-08T12:18:21.570Z,23.56
2019-03-08T12:20:54.170Z,23.41
2019-03-08T12:23:29.511Z,23.32
2019-03-08T12:26:19.180Z,22.94
2019-03-08T12:28:51.916Z,22.85
2019-03-08T12:31:27.613Z,18.15
2019-03-08T12:34:01.139Z,18.36
2019-03-08T12:36:38.053Z,18.07
2019-03-08T12:39:16.830Z,17.83
2019-03-08T12:45:23.921Z,17.53
2019-03-08T12:48:13.953Z,17.40
2019-03-08T12:51:11.093Z,17.35
2019-03-08T12:54:00.839Z,16.66
2019-03-08T12:56:37.092Z,16.16
2019-03-08T12:59:12.465Z,16.64
2019-03-08T13:01:44.760Z,17.58
2019-03-08T13:04:17.487Z,18.29
2019-03-08T13:07:06.633Z,18.65
2019-03-08T13:09:39.152Z,19.01
2019-03-08T13:12:10.007Z,19.24
2019-03-08T13:14:40.954Z,19.38
2019-03-08T13:17:11.886Z,19.56
2019-03-08T13:19:42.739Z,19.57
2019-03-08T13:22:14.299Z,19.62
2019-03-08T13:24:45.328Z,19.66
2019-03-08T13:27:16.408Z,19.72
2019-03-08T13:29:48.054Z,19.74
2019-03-08T13:32:18.935Z,19.84
2019-03-08T13:34:50.167Z,19.79
2019-03-08T13:37:21.595Z,19.74
2019-03-08T13:39:53.507Z,19.83
2019-03-08T13:42:48.126Z,19.94
2019-03-08T13:45:41.386Z,19.89
2019-03-08T13:48:19.327Z,19.89
2019-03-08T13:50:53.252Z,20.12
2019-03-08T13:53:30.367Z,20.23
2019-03-08T13:56:03.913Z,20.25
2019-03-08T13:58:35.160Z,20.60
2019-03-08T14:01:06.192Z,20.74
2019-03-08T14:03:37.354Z,20.66
2019-03-08T14:06:08.461Z,20.56
2019-03-08T14:08:39.634Z,20.71
2019-03-08T14:11:10.488Z,20.84
2019-03-08T14:13:41.617Z,20.94
2019-03-08T14:16:12.275Z,21.03
2019-03-08T14:18:43.335Z,21.02
2019-03-08T14:21:14.122Z,21.10
2019-03-08T14:23:45.355Z,21.27
2019-03-08T14:26:16.367Z,21.31
2019-03-08T14:28:48.000Z,21.34
2019-03-08T14:31:21.121Z,21.48
2019-03-08T14:33:52.087Z,21.52
2019-03-08T14:36:23.087Z,21.57
2019-03-08T14:38:54.055Z,21.65
2019-03-08T14:41:30.648Z,21.70
2019-03-08T14:44:11.008Z,21.71
2019-03-08T14:46:53.044Z,21.79
2019-03-08T14:49:25.397Z,21.73
2019-03-08T14:51:56.429Z,21.76
2019-03-08T14:54:46.424Z,21.75
2019-03-08T14:57:27.106Z,21.87
2019-03-08T14:59:53.144Z,21.96
2019-03-08T15:02:26.615Z,21.93
2019-03-08T15:04:58.560Z,18.51
2019-03-08T15:07:32.355Z,15.85
2019-03-08T15:10:06.287Z,14.57
2019-03-08T15:12:36.478Z,14.11
2019-03-08T15:15:12.850Z,13.80
2019-03-08T15:17:43.953Z,13.51
2019-03-08T15:20:19.387Z,13.30
2019-03-08T15:22:50.661Z,13.22
2019-03-08T15:25:21.921Z,13.14
2019-03-08T15:27:52.896Z,13.02
2019-03-08T15:30:23.831Z,12.92
2019-03-08T15:32:54.790Z,12.93
2019-03-08T15:35:25.614Z,12.79
2019-03-08T15:37:58.428Z,12.72
2019-03-08T15:40:33.109Z,12.71
2019-03-08T15:43:03.109Z,12.56
2019-03-08T15:45:34.802Z,12.46
2019-03-08T15:48:05.875Z,12.48
2019-03-08T15:50:37.219Z,12.46
2019-03-08T15:53:08.333Z,12.43
2019-03-08T15:55:39.147Z,12.31
2019-03-08T15:58:10.540Z,12.25
2019-03-08T16:00:41.272Z,12.18
2019-03-08T16:03:12.204Z,12.17
2019-03-08T16:05:43.473Z,12.06
2019-03-08T16:08:14.960Z,12.09
2019-03-08T16:10:45.951Z,12.06
2019-03-08T16:13:17.140Z,11.92
2019-03-08T16:15:48.039Z,11.85
2019-03-08T16:18:18.886Z,11.91
2019-03-08T16:20:49.466Z,11.90
2019-03-08T16:23:21.297Z,11.83
2019-03-08T16:25:52.376Z,11.80
2019-03-08T16:28:23.228Z,11.76
2019-03-08T16:31:05.698Z,11.62
2019-03-08T16:33:38.272Z,11.57
2019-03-08T16:36:16.893Z,11.57
2019-03-08T16:38:52.686Z,11.55
2019-03-08T16:41:25.140Z,11.45
2019-03-08T16:44:04.000Z,11.42
2019-03-08T16:46:36.807Z,11.41
2019-03-08T16:49:27.822Z,11.36
2019-03-08T16:52:05.884Z,11.26
2019-03-08T16:54:53.792Z,11.26
2019-03-08T16:57:41.845Z,11.28
2019-03-08T17:00:20.346Z,11.12
2019-03-08T17:02:55.868Z,11.12
2019-03-08T17:05:34.705Z,11.07
2019-03-08T17:08:16.219Z,11.06
2019-03-08T17:10:55.000Z,11.14
2019-03-08T17:13:27.680Z,11.11
2019-03-08T17:16:06.012Z,10.99
2019-03-08T17:18:38.403Z,10.95
2019-03-08T17:21:14.753Z,10.98
2019-03-08T17:24:03.173Z,10.97
2019-03-08T17:26:38.694Z,10.81
2019-03-08T17:29:13.972Z,14.93
2019-03-08T17:31:53.106Z,16.30
2019-03-08T17:34:28.426Z,17.39
2019-03-08T17:37:01.641Z,18.07
2019-03-08T17:39:40.493Z,18.48
2019-03-08T17:42:29.934Z,18.83
2019-03-08T17:45:03.433Z,19.17
2019-03-08T17:47:45.497Z,19.45
2019-03-08T17:50:23.787Z,19.57
2019-03-08T17:52:59.367Z,19.73
2019-03-08T17:55:48.346Z,20.04
2019-03-08T17:58:32.909Z,20.52
2019-03-08T18:01:21.640Z,20.76
2019-03-08T18:03:54.526Z,21.03
2019-03-08T18:06:43.388Z,21.06
2019-03-08T18:09:35.438Z,21.06
2019-03-08T18:12:08.692Z,21.13
2019-03-08T18:14:57.059Z,21.18
2019-03-08T18:17:35.608Z,21.25
2019-03-08T18:20:09.927Z,21.35
2019-03-08T18:22:45.247Z,21.40
2019-03-08T18:25:25.707Z,21.57
2019-03-08T18:28:14.406Z,21.59
2019-03-08T18:30:53.074Z,21.52
2019-03-08T18:33:32.227Z,21.46
2019-03-08T18:36:04.725Z,21.42
2019-03-08T18:38:53.650Z,21.28
2019-03-08T18:41:30.395Z,21.28
2019-03-08T18:44:09.122Z,21.24
2019-03-08T18:46:59.428Z,21.20
2019-03-08T18:49:48.711Z,21.14
2019-03-08T18:52:36.637Z,21.08
2019-03-08T18:55:12.760Z,20.99
2019-03-08T18:57:45.375Z,20.95
2019-03-08T19:00:33.957Z,20.84
2019-03-08T19:03:10.695Z,20.82
2019-03-08T19:05:49.826Z,20.81
2019-03-08T19:08:22.508Z,20.79
2019-03-08T19:10:55.501Z,20.74
2019-03-08T19:13:27.644Z,20.70
2019-03-08T19:16:13.648Z,20.65
2019-03-08T19:18:56.890Z,20.64
2019-03-08T19:21:48.067Z,20.55
2019-03-08T19:24:26.827Z,20.53
2019-03-08T19:27:05.206Z,20.49
2019-03-08T19:29:42.101Z,20.49
2019-03-08T19:32:32.980Z,20.43
2019-03-08T19:35:15.387Z,20.39
2019-03-08T19:37:57.549Z,20.37
2019-03-08T19:40:39.236Z,20.34
2019-03-08T19:43:12.802Z,20.30
2019-03-08T19:45:45.681Z,20.26
2019-03-08T19:48:19.572Z,20.28
2019-03-08T19:50:58.116Z,20.21
2019-03-08T19:53:30.784Z,20.23
2019-03-08T19:56:18.076Z,20.20
2019-03-08T19:58:50.485Z,20.11
2019-03-08T20:01:26.330Z,20.09
2019-03-08T20:04:02.083Z,20.03
2019-03-08T20:06:40.803Z,20.00
2019-03-08T20:09:13.377Z,20.04
2019-03-08T20:12:01.490Z,20.03
